createdAt,value
2022-08-26T00:02:12.771Z,72.96
2022-08-26T00:04:41.105Z,73.09
2022-08-26T00:07:09.244Z,73.22
2022-08-26T00:09:39.138Z,73.46
2022-08-26T00:12:11.586Z,73.04
2022-08-26T00:14:40.928Z,73.25
2022-08-26T00:17:09.674Z,73.17
2022-08-26T00:19:38.260Z,73.22
2022-08-26T00:22:06.375Z,72.93
2022-08-26T00:24:34.183Z,73.36
2022-08-26T00:27:02.123Z,73.66
2022-08-26T00:29:32.023Z,73.64
2022-08-26T00:32:04.109Z,73.44
2022-08-26T00:34:32.135Z,73.33
2022-08-26T00:36:59.971Z,73.63
2022-08-26T00:39:27.693Z,73.64
2022-08-26T00:41:55.865Z,73.61
2022-08-26T00:44:24.009Z,73.55
2022-08-26T00:47:01.099Z,73.73
2022-08-26T00:49:41.106Z,74.70
2022-08-26T00:52:16.446Z,73.79
2022-08-26T00:55:16.328Z,75.00
2022-08-26T00:57:50.841Z,74.04
2022-08-26T01:00:26.078Z,73.91
2022-08-26T01:02:56.134Z,73.59
2022-08-26T01:05:24.467Z,73.38
2022-08-26T01:07:52.152Z,73.32
2022-08-26T01:10:26.825Z,73.61
2022-08-26T01:13:03.034Z,74.35
2022-08-26T01:15:45.880Z,74.35
2022-08-26T01:18:15.594Z,73.70
2022-08-26T01:21:36.409Z,74.57
2022-08-26T01:24:10.681Z,74.04
2022-08-26T01:26:42.861Z,74.05
2022-08-26T01:29:17.929Z,74.49
2022-08-26T01:31:57.745Z,74.13
2022-08-26T01:34:33.249Z,74.47
2022-08-26T01:37:19.483Z,74.70
2022-08-26T01:39:53.782Z,74.50
2022-08-26T01:42:25.470Z,73.65
2022-08-26T01:44:58.311Z,73.82
2022-08-26T01:47:31.350Z,73.47
2022-08-26T01:50:05.435Z,74.03
2022-08-26T01:52:37.969Z,73.60
2022-08-26T01:55:07.443Z,73.78
2022-08-26T01:57:36.414Z,73.53
2022-08-26T02:00:13.402Z,73.56
2022-08-26T02:03:11.905Z,74.22
2022-08-26T02:05:42.256Z,73.54
2022-08-26T02:08:11.581Z,73.41
2022-08-26T02:13:27.030Z,73.53
2022-08-26T02:15:56.340Z,73.68
2022-08-26T02:18:26.080Z,73.76
2022-08-26T02:20:56.015Z,73.59
2022-08-26T02:23:24.562Z,73.67
2022-08-26T02:26:01.051Z,74.89
2022-08-26T02:28:35.901Z,74.66
2022-08-26T02:31:03.739Z,74.01
2022-08-26T02:33:32.424Z,74.41
2022-08-26T02:36:00.296Z,74.27
2022-08-26T02:38:29.460Z,74.24
2022-08-26T02:40:57.507Z,74.35
2022-08-26T02:43:31.637Z,74.37
2022-08-26T02:46:02.325Z,74.09
2022-08-26T02:48:30.952Z,74.10
2022-08-26T02:51:02.626Z,74.01
2022-08-26T02:53:31.992Z,73.80
2022-08-26T02:56:08.027Z,73.69
2022-08-26T02:58:36.388Z,73.57
2022-08-26T03:01:05.010Z,73.82
2022-08-26T03:03:33.585Z,73.86
2022-08-26T03:06:01.391Z,73.77
2022-08-26T03:08:29.155Z,73.70
2022-08-26T03:10:56.912Z,73.64
2022-08-26T03:13:24.620Z,73.49
2022-08-26T03:15:52.435Z,73.42
2022-08-26T03:18:20.556Z,73.56
2022-08-26T03:20:48.488Z,73.64
2022-08-26T03:23:16.548Z,73.62
2022-08-26T03:25:53.857Z,74.10
2022-08-26T03:28:21.593Z,73.68
2022-08-26T03:30:49.334Z,73.51
2022-08-26T03:33:17.554Z,73.46
2022-08-26T03:35:47.336Z,73.65
2022-08-26T03:38:15.851Z,73.55
2022-08-26T03:40:44.195Z,73.54
2022-08-26T03:43:13.279Z,73.65
2022-08-26T03:45:41.156Z,73.97
2022-08-26T03:48:11.518Z,74.19
2022-08-26T03:50:39.853Z,74.23
2022-08-26T03:53:12.932Z,74.25
2022-08-26T03:55:42.067Z,74.50
2022-08-26T03:58:11.196Z,74.55
2022-08-26T04:00:39.486Z,74.35
2022-08-26T04:03:09.970Z,74.29
2022-08-26T04:05:38.626Z,74.75
2022-08-26T04:08:06.899Z,74.47
2022-08-26T04:10:38.391Z,75.20
2022-08-26T04:13:06.608Z,75.18
2022-08-26T04:15:34.655Z,75.63
2022-08-26T04:18:02.403Z,74.96
2022-08-26T04:20:31.985Z,75.44
2022-08-26T04:23:00.013Z,75.33
2022-08-26T04:25:28.162Z,75.52
2022-08-26T04:27:55.982Z,75.87
2022-08-26T04:30:25.531Z,75.60
2022-08-26T04:32:53.264Z,75.89
2022-08-26T04:35:25.591Z,75.41
2022-08-26T04:37:54.000Z,75.63
2022-08-26T04:40:22.007Z,75.77
2022-08-26T04:42:50.399Z,75.35
2022-08-26T04:45:18.702Z,76.05
2022-08-26T04:47:56.516Z,76.42
2022-08-26T04:50:26.505Z,75.60
2022-08-26T04:52:55.407Z,75.85
2022-08-26T04:55:38.220Z,75.79
2022-08-26T04:58:11.419Z,76.01
2022-08-26T05:00:39.471Z,75.86
2022-08-26T05:03:07.655Z,75.84
2022-08-26T05:05:42.548Z,75.91
2022-08-26T05:08:13.548Z,75.92
2022-08-26T05:10:48.385Z,75.54
2022-08-26T05:13:20.599Z,76.73
2022-08-26T05:15:49.427Z,76.34
2022-08-26T05:18:21.403Z,76.20
2022-08-26T05:20:54.814Z,76.44
2022-08-26T05:23:24.660Z,76.00
2022-08-26T05:25:59.415Z,76.08
2022-08-26T05:28:30.002Z,76.32
2022-08-26T05:30:57.829Z,75.90
2022-08-26T05:33:25.660Z,75.94
2022-08-26T05:35:53.377Z,75.35
2022-08-26T05:38:22.642Z,76.00
2022-08-26T05:40:52.830Z,76.03
2022-08-26T05:43:22.270Z,76.15
2022-08-26T05:45:50.974Z,76.00
2022-08-26T05:48:22.790Z,75.54
2022-08-26T05:50:53.522Z,75.41
2022-08-26T05:53:25.915Z,75.75
2022-08-26T05:55:56.116Z,76.31
2022-08-26T05:58:24.478Z,75.56
2022-08-26T06:01:14.473Z,77.65
2022-08-26T06:03:47.658Z,76.18
2022-08-26T06:06:29.074Z,77.14
2022-08-26T06:08:59.589Z,76.05
2022-08-26T06:11:29.588Z,78.63
2022-08-26T06:14:04.301Z,75.91
2022-08-26T06:16:38.308Z,76.11
2022-08-26T06:19:10.607Z,75.64
2022-08-26T06:21:42.489Z,75.90
2022-08-26T06:24:32.530Z,76.08
2022-08-26T06:27:05.257Z,76.01
2022-08-26T06:29:36.566Z,75.61
2022-08-26T06:32:05.661Z,76.45
2022-08-26T06:34:35.314Z,76.05
2022-08-26T06:37:03.910Z,75.52
2022-08-26T06:39:34.467Z,75.52
2022-08-26T06:42:03.380Z,76.14
2022-08-26T06:44:35.019Z,75.48
2022-08-26T06:47:02.721Z,75.18
2022-08-26T06:49:30.490Z,74.91
2022-08-26T06:51:58.943Z,75.28
2022-08-26T06:54:30.304Z,74.89
2022-08-26T06:56:58.343Z,75.13
2022-08-26T06:59:26.355Z,74.73
2022-08-26T07:01:55.087Z,74.54
2022-08-26T07:04:24.712Z,74.42
2022-08-26T07:06:53.818Z,73.83
2022-08-26T07:09:25.550Z,73.70
2022-08-26T07:11:56.303Z,73.32
2022-08-26T07:14:26.160Z,73.24
2022-08-26T07:16:54.563Z,72.99
2022-08-26T07:19:29.966Z,72.54
2022-08-26T07:22:06.109Z,71.46
2022-08-26T07:24:38.545Z,70.51
2022-08-26T07:27:12.799Z,71.03
2022-08-26T07:29:43.475Z,71.08
2022-08-26T07:32:14.671Z,70.44
2022-08-26T07:34:43.527Z,67.52
2022-08-26T07:37:11.365Z,65.83
2022-08-26T07:39:40.849Z,65.64
2022-08-26T07:42:10.806Z,65.99
2022-08-26T07:44:40.536Z,64.98
2022-08-26T07:47:25.898Z,64.76
2022-08-26T07:49:56.527Z,63.58
2022-08-26T07:52:27.747Z,62.58
2022-08-26T07:54:59.048Z,63.03
2022-08-26T07:57:28.827Z,61.51
2022-08-26T07:59:57.606Z,61.69
2022-08-26T08:02:28.393Z,60.66
2022-08-26T08:04:57.940Z,62.32
2022-08-26T08:07:44.223Z,61.23
2022-08-26T08:10:22.655Z,61.09
2022-08-26T08:12:53.789Z,59.99
2022-08-26T08:15:26.569Z,59.91
2022-08-26T08:17:58.840Z,59.51
2022-08-26T08:20:29.162Z,58.91
2022-08-26T08:22:57.561Z,58.31
2022-08-26T08:25:25.476Z,59.84
2022-08-26T08:27:53.288Z,57.87
2022-08-26T08:30:23.347Z,58.35
2022-08-26T08:32:52.572Z,58.19
2022-08-26T08:35:22.763Z,56.32
2022-08-26T08:37:54.483Z,56.27
2022-08-26T08:40:26.370Z,56.45
2022-08-26T08:43:04.112Z,55.93
2022-08-26T08:45:37.073Z,55.27
2022-08-26T08:48:27.343Z,55.29
2022-08-26T08:51:17.213Z,54.39
2022-08-26T08:53:49.683Z,55.53
2022-08-26T08:56:39.062Z,54.04
2022-08-26T08:59:27.883Z,51.94
2022-08-26T09:02:09.968Z,53.91
2022-08-26T09:05:02.800Z,53.22
2022-08-26T09:07:42.571Z,51.55
2022-08-26T09:10:34.798Z,52.82
2022-08-26T09:13:09.506Z,52.36
2022-08-26T09:16:10.035Z,52.13
2022-08-26T09:19:19.223Z,52.09
2022-08-26T09:21:57.195Z,52.15
2022-08-26T09:24:28.582Z,52.63
2022-08-26T09:26:59.206Z,50.25
2022-08-26T09:29:40.787Z,50.47
2022-08-26T09:32:26.546Z,49.73
2022-08-26T09:35:11.553Z,50.22
2022-08-26T09:40:34.930Z,49.84
2022-08-26T09:43:05.704Z,49.31
2022-08-26T09:45:36.129Z,49.59
2022-08-26T09:48:06.491Z,50.08
2022-08-26T09:51:00.460Z,48.79
2022-08-26T09:53:37.680Z,50.11
2022-08-26T09:56:24.110Z,47.26
2022-08-26T09:58:54.086Z,48.79
2022-08-26T10:01:42.684Z,47.58
2022-08-26T10:04:23.539Z,47.80
2022-08-26T10:07:05.184Z,45.28
2022-08-26T10:09:39.137Z,46.93
2022-08-26T10:12:22.946Z,45.77
2022-08-26T10:15:01.724Z,45.84
2022-08-26T10:17:37.504Z,46.15
2022-08-26T10:20:31.317Z,44.71
2022-08-26T10:23:12.681Z,44.57
2022-08-26T10:25:44.926Z,45.25
2022-08-26T10:28:30.478Z,45.57
2022-08-26T10:31:44.962Z,43.77
2022-08-26T10:34:18.082Z,46.86
2022-08-26T10:37:15.877Z,43.63
2022-08-26T10:40:07.730Z,43.81
2022-08-26T10:43:11.322Z,44.55
2022-08-26T10:45:50.518Z,43.28
2022-08-26T10:48:48.513Z,45.54
2022-08-26T10:51:35.693Z,43.80
2022-08-26T10:54:53.357Z,44.91
2022-08-26T10:57:56.209Z,44.69
2022-08-26T11:00:55.371Z,45.21
2022-08-26T11:03:50.119Z,44.76
2022-08-26T11:06:25.614Z,44.50
2022-08-26T11:09:03.724Z,43.70
2022-08-26T11:11:40.818Z,42.61
2022-08-26T11:14:46.021Z,43.53
2022-08-26T11:17:44.905Z,42.99
2022-08-26T11:20:33.316Z,44.23
2022-08-26T11:23:12.961Z,40.78
2022-08-26T11:26:01.584Z,41.55
2022-08-26T11:28:38.349Z,41.89
2022-08-26T11:31:32.266Z,42.10
2022-08-26T11:34:13.907Z,42.16
2022-08-26T11:36:47.712Z,41.03
2022-08-26T11:39:56.972Z,41.87
2022-08-26T11:42:49.160Z,42.39
2022-08-26T11:45:43.521Z,40.83
2022-08-26T11:48:36.704Z,36.55
2022-08-26T11:51:11.193Z,41.49
2022-08-26T11:53:47.354Z,41.55
2022-08-26T11:56:34.374Z,42.36
2022-08-26T11:59:10.789Z,41.53
2022-08-26T12:01:44.597Z,41.88
2022-08-26T12:04:34.838Z,41.63
2022-08-26T12:07:04.903Z,42.48
2022-08-26T12:09:52.527Z,44.47
2022-08-26T12:12:34.044Z,43.68
2022-08-26T12:15:19.784Z,41.05
2022-08-26T12:17:52.974Z,41.61
2022-08-26T12:20:48.942Z,40.67
2022-08-26T12:23:35.160Z,41.78
2022-08-26T12:26:13.228Z,42.18
2022-08-26T12:29:12.587Z,43.05
2022-08-26T12:31:48.814Z,44.12
2022-08-26T12:34:18.710Z,44.86
2022-08-26T12:36:48.645Z,42.40
2022-08-26T12:39:27.312Z,43.47
2022-08-26T12:42:01.427Z,43.34
2022-08-26T12:44:53.756Z,42.36
2022-08-26T12:47:44.506Z,39.39
2022-08-26T12:50:37.113Z,42.16
2022-08-26T12:53:10.563Z,41.39
2022-08-26T12:55:48.094Z,42.35
2022-08-26T12:58:15.774Z,43.11
2022-08-26T13:00:51.348Z,43.10
2022-08-26T13:03:34.881Z,43.19
2022-08-26T13:06:31.442Z,43.84
2022-08-26T13:09:09.826Z,43.37
2022-08-26T13:11:40.243Z,43.66
2022-08-26T13:14:21.097Z,44.24
2022-08-26T13:16:55.882Z,43.74
2022-08-26T13:19:25.875Z,43.77
2022-08-26T13:22:15.770Z,44.06
2022-08-26T13:24:44.826Z,44.93
2022-08-26T13:27:15.526Z,44.82
2022-08-26T13:29:48.916Z,43.82
2022-08-26T13:32:18.209Z,44.81
2022-08-26T13:34:51.422Z,45.32
2022-08-26T13:37:22.543Z,45.30
2022-08-26T13:40:07.050Z,44.80
2022-08-26T13:42:34.890Z,44.62
2022-08-26T13:45:04.362Z,43.81
2022-08-26T13:47:32.405Z,43.75
2022-08-26T13:50:00.417Z,44.42
2022-08-26T13:52:30.896Z,44.05
2022-08-26T13:55:00.828Z,44.10
2022-08-26T13:57:30.576Z,44.48
2022-08-26T13:59:59.738Z,45.14
2022-08-26T14:02:29.879Z,45.47
2022-08-26T14:04:58.098Z,45.62
2022-08-26T14:07:26.306Z,45.57
2022-08-26T14:09:54.528Z,45.75
2022-08-26T14:12:25.049Z,45.75
2022-08-26T14:14:54.246Z,46.45
2022-08-26T14:17:25.105Z,45.08
2022-08-26T14:19:53.883Z,45.43
2022-08-26T14:22:22.779Z,45.48
2022-08-26T14:24:50.912Z,45.17
2022-08-26T14:27:18.663Z,45.56
2022-08-26T14:29:46.438Z,44.67
2022-08-26T14:32:24.820Z,44.24
2022-08-26T14:34:52.939Z,43.24
2022-08-26T14:37:22.676Z,43.42
2022-08-26T14:39:51.155Z,43.96
2022-08-26T14:42:31.432Z,44.19
2022-08-26T14:45:04.055Z,42.52
2022-08-26T14:47:31.991Z,44.34
2022-08-26T14:49:59.817Z,44.36
2022-08-26T14:52:27.767Z,43.94
2022-08-26T14:54:55.561Z,43.66
2022-08-26T14:57:23.326Z,43.00
2022-08-26T14:59:51.100Z,43.82
2022-08-26T15:02:32.412Z,43.25
2022-08-26T15:05:02.876Z,44.29
2022-08-26T15:07:30.727Z,42.14
2022-08-26T15:09:58.608Z,41.94
2022-08-26T15:12:26.576Z,39.94
2022-08-26T15:14:54.306Z,41.48
2022-08-26T15:17:22.040Z,41.39
2022-08-26T15:19:49.834Z,41.71
2022-08-26T15:22:17.668Z,41.66
2022-08-26T15:24:45.450Z,41.78
2022-08-26T15:27:13.294Z,41.71
2022-08-26T15:29:41.583Z,42.34
2022-08-26T15:32:09.897Z,43.28
2022-08-26T15:34:38.515Z,43.91
2022-08-26T15:37:06.519Z,45.42
2022-08-26T15:39:34.646Z,45.80
2022-08-26T15:42:03.051Z,44.49
2022-08-26T15:44:30.804Z,44.53
2022-08-26T15:46:59.077Z,44.83
2022-08-26T15:49:27.702Z,45.19
2022-08-26T15:51:55.767Z,46.80
2022-08-26T15:54:24.237Z,47.27
2022-08-26T15:56:53.495Z,47.95
2022-08-26T15:59:23.024Z,47.44
2022-08-26T16:01:52.259Z,47.28
2022-08-26T16:04:20.663Z,47.27
2022-08-26T16:06:51.586Z,47.30
2022-08-26T16:09:24.354Z,47.87
2022-08-26T16:11:54.507Z,47.73
2022-08-26T16:14:24.970Z,48.51
2022-08-26T16:16:53.583Z,49.02
2022-08-26T16:19:22.178Z,49.41
2022-08-26T16:21:51.596Z,49.96
2022-08-26T16:24:24.799Z,50.74
2022-08-26T16:26:55.100Z,51.12
2022-08-26T16:29:23.067Z,51.34
2022-08-26T16:31:53.289Z,51.42
2022-08-26T16:34:22.048Z,51.40
2022-08-26T16:36:49.893Z,51.50
2022-08-26T16:39:17.671Z,51.38
2022-08-26T16:41:45.430Z,51.82
2022-08-26T16:44:13.277Z,52.51
2022-08-26T16:46:41.287Z,52.72
2022-08-26T16:49:09.159Z,53.06
2022-08-26T16:51:37.986Z,53.47
2022-08-26T16:54:07.925Z,53.52
2022-08-26T16:56:37.364Z,54.59
2022-08-26T16:59:10.611Z,54.26
2022-08-26T17:01:38.673Z,54.25
2022-08-26T17:04:06.583Z,54.58
2022-08-26T17:06:34.389Z,55.08
2022-08-26T17:09:02.208Z,55.03
2022-08-26T17:11:30.653Z,55.83
2022-08-26T17:13:58.356Z,56.59
2022-08-26T17:16:27.185Z,56.61
2022-08-26T17:18:57.729Z,56.71
2022-08-26T17:21:27.364Z,56.81
2022-08-26T17:23:56.580Z,58.62
2022-08-26T17:26:24.402Z,57.30
2022-08-26T17:28:52.963Z,57.94
2022-08-26T17:31:21.520Z,58.00
2022-08-26T17:33:53.749Z,57.98
2022-08-26T17:36:27.850Z,58.16
2022-08-26T17:38:58.278Z,58.32
2022-08-26T17:41:27.150Z,59.13
2022-08-26T17:43:55.372Z,59.64
2022-08-26T17:46:24.655Z,59.35
2022-08-26T17:48:52.747Z,59.43
2022-08-26T17:51:22.775Z,60.05
2022-08-26T17:53:52.329Z,59.99
2022-08-26T17:56:25.870Z,60.83
2022-08-26T17:58:57.902Z,60.39
2022-08-26T18:01:30.969Z,60.35
2022-08-26T18:04:00.553Z,60.41
2022-08-26T18:06:30.645Z,60.44
2022-08-26T18:08:59.767Z,62.67
2022-08-26T18:11:31.255Z,60.92
2022-08-26T18:14:00.423Z,60.62
2022-08-26T18:16:31.654Z,60.97
2022-08-26T18:19:00.767Z,62.44
2022-08-26T18:21:28.565Z,61.92
2022-08-26T18:23:56.554Z,62.53
2022-08-26T18:26:31.160Z,62.40
2022-08-26T18:28:59.831Z,62.18
2022-08-26T18:31:28.846Z,62.12
2022-08-26T18:33:59.664Z,62.57
2022-08-26T18:36:32.282Z,63.48
2022-08-26T18:39:00.924Z,63.40
2022-08-26T18:41:32.640Z,63.57
2022-08-26T18:44:00.939Z,63.76
2022-08-26T18:46:28.916Z,63.46
2022-08-26T18:48:57.840Z,63.56
2022-08-26T18:51:32.951Z,64.27
2022-08-26T18:54:05.293Z,64.60
2022-08-26T18:56:36.610Z,64.08
2022-08-26T18:59:07.644Z,64.18
2022-08-26T19:01:37.391Z,64.87
2022-08-26T19:04:08.250Z,67.76
2022-08-26T19:06:39.537Z,65.56
2022-08-26T19:09:10.344Z,65.44
2022-08-26T19:11:42.941Z,64.92
2022-08-26T19:14:14.864Z,66.19
2022-08-26T19:16:46.881Z,65.57
2022-08-26T19:19:15.814Z,65.62
2022-08-26T19:21:43.833Z,65.85
2022-08-26T19:24:17.490Z,66.91
2022-08-26T19:26:50.344Z,67.01
2022-08-26T19:29:27.213Z,66.17
2022-08-26T19:31:55.213Z,66.56
2022-08-26T19:34:23.736Z,66.36
2022-08-26T19:36:53.555Z,66.75
2022-08-26T19:39:21.517Z,69.91
2022-08-26T19:41:49.351Z,67.15
2022-08-26T19:44:39.709Z,67.15
2022-08-26T19:47:10.856Z,66.95
2022-08-26T19:49:39.392Z,67.23
2022-08-26T19:52:08.175Z,67.22
2022-08-26T19:54:36.629Z,67.04
2022-08-26T19:57:05.183Z,67.41
2022-08-26T19:59:33.746Z,67.51
2022-08-26T20:02:07.132Z,67.02
2022-08-26T20:04:38.502Z,70.62
2022-08-26T20:07:06.252Z,68.18
2022-08-26T20:09:36.037Z,68.70
2022-08-26T20:12:06.080Z,67.88
2022-08-26T20:14:35.668Z,67.57
2022-08-26T20:17:05.334Z,68.23
2022-08-26T20:19:52.348Z,67.91
2022-08-26T20:22:21.615Z,68.75
2022-08-26T20:24:50.696Z,68.24
2022-08-26T20:27:19.176Z,68.68
2022-08-26T20:29:46.903Z,68.29
2022-08-26T20:32:15.130Z,68.84
2022-08-26T20:34:43.037Z,68.60
2022-08-26T20:37:12.689Z,68.56
2022-08-26T20:39:42.009Z,68.13
2022-08-26T20:42:20.353Z,68.42
2022-08-26T20:44:54.177Z,68.07
2022-08-26T20:47:23.524Z,68.27
2022-08-26T20:49:52.340Z,68.30
2022-08-26T20:52:20.351Z,68.34
2022-08-26T20:54:48.175Z,68.07
2022-08-26T20:57:15.976Z,68.13
2022-08-26T20:59:43.823Z,68.64
2022-08-26T21:02:11.770Z,68.44
2022-08-26T21:04:40.574Z,68.46
2022-08-26T21:07:08.401Z,69.16
2022-08-26T21:09:36.184Z,68.67
2022-08-26T21:12:05.327Z,68.88
2022-08-26T21:14:40.254Z,69.14
2022-08-26T21:17:08.130Z,68.91
2022-08-26T21:19:35.888Z,68.80
2022-08-26T21:22:04.079Z,69.49
2022-08-26T21:24:32.878Z,69.15
2022-08-26T21:27:00.567Z,69.49
2022-08-26T21:29:28.607Z,69.48
2022-08-26T21:31:57.523Z,70.07
2022-08-26T21:34:25.444Z,69.41
2022-08-26T21:36:53.309Z,69.44
2022-08-26T21:39:21.411Z,69.43
2022-08-26T21:41:49.254Z,70.33
2022-08-26T21:44:18.442Z,69.62
2022-08-26T21:46:47.022Z,69.46
2022-08-26T21:49:16.218Z,69.74
2022-08-26T21:51:47.995Z,70.41
2022-08-26T21:54:16.514Z,70.00
2022-08-26T21:56:47.079Z,69.78
2022-08-26T21:59:18.436Z,70.13
2022-08-26T22:01:47.109Z,69.64
2022-08-26T22:04:16.175Z,69.99
2022-08-26T22:06:48.775Z,70.37
2022-08-26T22:09:22.665Z,70.59
2022-08-26T22:11:51.824Z,69.65
2022-08-26T22:14:30.666Z,70.08
2022-08-26T22:16:59.881Z,69.75
2022-08-26T22:19:27.984Z,69.54
2022-08-26T22:21:56.058Z,70.38
2022-08-26T22:24:27.086Z,70.71
2022-08-26T22:26:55.680Z,70.68
2022-08-26T22:29:25.179Z,70.37
2022-08-26T22:31:53.658Z,70.07
2022-08-26T22:34:23.204Z,71.29
2022-08-26T22:36:51.410Z,70.74
2022-08-26T22:39:23.983Z,71.34
2022-08-26T22:41:54.234Z,70.36
2022-08-26T22:44:23.291Z,70.15
2022-08-26T22:46:54.405Z,70.09
2022-08-26T22:49:23.631Z,70.37
2022-08-26T22:51:51.616Z,70.13
2022-08-26T22:54:19.443Z,70.11
2022-08-26T22:56:47.214Z,70.07
2022-08-26T22:59:16.255Z,70.31
2022-08-26T23:01:44.739Z,70.41
2022-08-26T23:04:13.459Z,70.87
2022-08-26T23:06:47.467Z,70.48
2022-08-26T23:09:18.678Z,70.60
2022-08-26T23:11:48.448Z,70.23
2022-08-26T23:14:17.942Z,71.10
2022-08-26T23:16:45.820Z,70.57
2022-08-26T23:19:16.592Z,70.92
2022-08-26T23:21:45.316Z,70.67
2022-08-26T23:24:14.172Z,71.08
2022-08-26T23:26:43.376Z,70.86
2022-08-26T23:29:13.668Z,71.03
2022-08-26T23:31:42.796Z,71.03
2022-08-26T23:34:30.452Z,70.84
2022-08-26T23:37:00.180Z,71.75
2022-08-26T23:39:32.304Z,71.21
2022-08-26T23:42:01.803Z,71.19
2022-08-26T23:44:30.888Z,70.88
2022-08-26T23:46:59.751Z,70.95
2022-08-26T23:49:29.047Z,70.97
2022-08-26T23:52:15.802Z,71.18
2022-08-26T23:54:43.919Z,71.05
2022-08-26T23:57:11.895Z,71.08
2022-08-26T23:59:39.737Z,71.52
